Time;durP1;ratioP1;P1;durP2;ratioP2;P2;SDS_P1;SDS_P2;PMS_P1;PMS_P2;Temp;Humidity;BMP_temperature;BMP_pressure;BME280_temperature;BME280_humidity;BME280_pressure;Samples;Min_cycle;Max_cycle;Signal;HPM_P1;HPM_P2
2022/05/15 00:00:44;;;;;;;15.15;4.45;;;11.40;99.90;;;;;;5061989;28;20055;-46
2022/05/15 00:03:17;;;;;;;14.93;4.88;;;11.40;99.90;;;;;;5050815;28;20033;-48
2022/05/15 00:05:44;;;;;;;11.40;4.30;;;11.30;99.90;;;;;;5050373;28;20044;-45
2022/05/15 00:08:10;;;;;;;18.75;4.88;;;11.30;99.90;;;;;;5049151;28;20032;-46
2022/05/15 00:10:38;;;;;;;13.65;4.65;;;11.30;99.90;;;;;;5050301;28;20036;-44
2022/05/15 00:13:05;;;;;;;14.63;5.15;;;11.30;99.90;;;;;;5053473;28;20025;-45
2022/05/15 00:15:32;;;;;;;11.65;4.57;;;11.20;99.90;;;;;;5067516;28;20381;-45
2022/05/15 00:17:57;;;;;;;14.98;4.70;;;11.20;99.90;;;;;;5073180;28;20098;-45
2022/05/15 00:20:23;;;;;;;13.88;4.68;;;11.10;99.90;;;;;;5080235;28;20482;-44
2022/05/15 00:22:48;;;;;;;10.20;4.45;;;11.10;99.90;;;;;;5068183;28;20028;-44
2022/05/15 00:25:14;;;;;;;10.27;4.22;;;11.00;99.90;;;;;;5070282;28;20078;-44
2022/05/15 00:27:39;;;;;;;10.48;3.50;;;10.90;99.90;;;;;;5070169;28;20078;-44
2022/05/15 00:30:05;;;;;;;11.73;4.20;;;10.90;99.90;;;;;;5064466;28;20036;-45
2022/05/15 00:32:32;;;;;;;7.05;3.35;;;10.80;99.90;;;;;;5058002;28;20093;-46
2022/05/15 00:34:59;;;;;;;12.07;4.32;;;10.80;99.90;;;;;;5059046;28;20485;-45
2022/05/15 00:37:24;;;;;;;10.45;4.15;;;10.80;99.90;;;;;;5067604;28;20466;-44
2022/05/15 00:39:50;;;;;;;12.75;4.28;;;10.80;99.90;;;;;;5069126;28;20024;-46
2022/05/15 00:42:15;;;;;;;7.95;3.75;;;10.70;99.90;;;;;;5069595;28;20416;-44
2022/05/15 00:44:41;;;;;;;12.23;4.50;;;10.60;99.90;;;;;;5073951;28;20450;-44
2022/05/15 00:47:06;;;;;;;16.63;4.35;;;10.60;99.90;;;;;;5074793;28;20074;-45
2022/05/15 00:49:34;;;;;;;10.40;4.25;;;10.50;99.90;;;;;;5075227;28;20034;-45
2022/05/15 00:52:04;;;;;;;11.45;4.05;;;10.50;99.90;;;;;;5073080;28;20021;-46
2022/05/15 00:54:35;;;;;;;8.32;3.92;;;10.40;99.90;;;;;;5073836;28;20363;-45
2022/05/15 00:57:08;;;;;;;;;;;10.30;99.90;;;;;;5074120;28;20099;-44
2022/05/15 00:59:57;;;;;;;7.32;3.58;;;10.20;99.90;;;;;;5057860;28;19908;-44
2022/05/15 01:02:24;;;;;;;10.57;3.92;;;10.10;99.90;;;;;;5053296;28;20025;-47
2022/05/15 01:04:50;;;;;;;13.43;4.55;;;10.10;99.90;;;;;;5071868;28;20513;-44
2022/05/15 01:07:16;;;;;;;11.85;4.57;;;10.00;99.90;;;;;;5072367;28;20036;-45
2022/05/15 01:09:41;;;;;;;11.10;4.28;;;10.10;99.90;;;;;;5054545;28;20025;-44
2022/05/15 01:12:08;;;;;;;11.63;4.47;;;10.10;99.90;;;;;;5052648;28;20070;-46
2022/05/15 01:14:34;;;;;;;11.27;4.00;;;10.10;99.90;;;;;;5053323;28;20063;-46
2022/05/15 01:16:59;;;;;;;13.98;4.45;;;10.10;99.90;;;;;;5073646;28;20052;-45
2022/05/15 01:19:35;;;;;;;12.60;5.10;;;10.10;99.90;;;;;;5085091;28;20021;-45
2022/05/15 01:22:01;;;;;;;14.13;4.65;;;10.00;99.90;;;;;;5092864;28;20461;-44
2022/05/15 01:24:27;;;;;;;11.43;4.50;;;10.10;99.90;;;;;;5092908;28;20032;-44
2022/05/15 01:26:55;;;;;;;11.60;4.00;;;10.00;99.90;;;;;;5091658;28;20016;-44
2022/05/15 01:29:34;;;;;;;9.23;3.60;;;10.00;99.90;;;;;;5091627;28;20024;-45
2022/05/15 01:32:00;;;;;;;8.95;4.03;;;10.00;99.90;;;;;;5090936;28;20136;-44
2022/05/15 01:34:26;;;;;;;10.05;4.00;;;10.00;99.90;;;;;;5080959;28;20017;-44
2022/05/15 01:36:52;;;;;;;7.22;3.78;;;9.90;99.90;;;;;;5072561;28;20021;-45
2022/05/15 01:39:18;;;;;;;9.40;3.75;;;9.90;99.90;;;;;;5072179;28;20115;-45
2022/05/15 01:41:44;;;;;;;11.38;3.65;;;9.80;99.90;;;;;;5071669;28;20035;-45
2022/05/15 01:44:10;;;;;;;12.50;4.38;;;9.80;99.90;;;;;;5072009;28;20051;-45
2022/05/15 01:46:35;;;;;;;10.52;3.92;;;9.80;99.90;;;;;;5067477;28;20027;-44
2022/05/15 01:49:03;;;;;;;11.80;4.57;;;9.60;99.90;;;;;;5082622;28;20032;-45
2022/05/15 01:51:29;;;;;;;11.05;4.18;;;9.60;99.90;;;;;;5090940;28;20111;-44
2022/05/15 01:53:54;;;;;;;7.93;3.38;;;9.60;99.90;;;;;;5090692;28;20103;-44
2022/05/15 01:56:20;;;;;;;10.48;3.60;;;9.50;99.90;;;;;;5091114;28;20069;-45
2022/05/15 01:58:46;;;;;;;14.60;4.78;;;9.40;99.90;;;;;;5091313;28;20113;-44
2022/05/15 02:01:11;;;;;;;8.30;4.13;;;9.40;99.90;;;;;;5084908;28;20436;-44
2022/05/15 02:03:37;;;;;;;8.02;3.60;;;9.40;99.90;;;;;;5048832;28;20028;-44
2022/05/15 02:06:03;;;;;;;9.50;4.25;;;9.50;99.90;;;;;;5050836;28;20033;-44
2022/05/15 02:08:35;;;;;;;7.82;3.70;;;9.40;99.90;;;;;;5051515;28;20020;-44
2022/05/15 02:11:01;;;;;;;8.95;3.47;;;9.40;99.90;;;;;;5072107;28;20025;-44
2022/05/15 02:13:26;;;;;;;9.52;3.60;;;9.30;99.90;;;;;;5071435;28;20082;-44
2022/05/15 02:15:52;;;;;;;8.63;3.50;;;9.30;99.90;;;;;;5067585;28;20108;-46
2022/05/15 02:18:18;;;;;;;9.95;3.45;;;9.30;99.90;;;;;;5078854;28;20276;-44
2022/05/15 02:20:43;;;;;;;13.77;4.18;;;9.20;99.90;;;;;;5092381;28;20024;-45
2022/05/15 02:23:08;;;;;;;7.95;3.38;;;9.20;99.90;;;;;;5091618;28;20028;-44
2022/05/15 02:25:34;;;;;;;11.05;4.30;;;9.20;99.90;;;;;;5092278;28;20075;-45
2022/05/15 02:28:00;;;;;;;9.15;3.63;;;9.20;99.90;;;;;;5092039;28;20533;-46
2022/05/15 02:30:26;;;;;;;8.43;4.43;;;9.20;99.90;;;;;;5092277;28;20020;-44
2022/05/15 02:32:51;;;;;;;6.30;3.22;;;9.10;99.90;;;;;;5091301;28;20028;-44
2022/05/15 02:35:17;;;;;;;11.52;3.75;;;9.10;99.90;;;;;;5083839;28;20050;-45
2022/05/15 02:37:44;;;;;;;8.85;4.25;;;9.10;99.90;;;;;;5059962;28;20485;-44
2022/05/15 02:40:12;;;;;;;11.60;3.75;;;9.00;99.90;;;;;;5061020;28;20017;-45
2022/05/15 02:42:38;;;;;;;10.57;3.95;;;9.00;99.90;;;;;;5059957;28;20028;-45
2022/05/15 02:45:05;;;;;;;6.70;3.63;;;9.00;99.90;;;;;;5062779;28;20020;-45
2022/05/15 02:47:31;;;;;;;7.75;3.53;;;8.90;99.90;;;;;;5070800;28;20031;-44
2022/05/15 02:52:41;;;;;;;10.73;3.50;;;8.70;99.90;;;;;;5064368;28;20114;-44
2022/05/15 02:55:06;;;;;;;13.18;3.78;;;8.70;99.90;;;;;;5062161;28;20582;-45
2022/05/15 02:57:32;;;;;;;14.20;3.53;;;8.60;99.90;;;;;;5060937;28;20021;-45
2022/05/15 02:59:57;;;;;;;6.88;3.80;;;8.50;99.90;;;;;;5060370;28;20024;-44
2022/05/15 03:02:23;;;;;;;15.40;4.40;;;8.40;99.90;;;;;;5058250;28;20111;-45
2022/05/15 03:04:49;;;;;;;13.48;4.35;;;8.50;99.90;;;;;;5061280;28;20462;-44
2022/05/15 03:07:15;;;;;;;14.45;3.90;;;8.50;99.90;;;;;;5058713;28;20074;-45
2022/05/15 03:09:41;;;;;;;11.90;3.83;;;8.50;99.90;;;;;;5061597;28;20025;-44
2022/05/15 03:12:07;;;;;;;10.02;4.13;;;8.50;99.90;;;;;;5059655;28;20028;-45
2022/05/15 03:14:32;;;;;;;10.70;4.50;;;8.50;99.90;;;;;;5062723;28;20685;-45
2022/05/15 03:16:58;;;;;;;10.80;4.30;;;8.50;99.90;;;;;;5062436;28;20492;-44
2022/05/15 03:19:24;;;;;;;14.98;5.50;;;8.60;99.90;;;;;;5066998;28;20025;-46
2022/05/15 03:21:49;;;;;;;12.80;4.32;;;8.60;99.90;;;;;;5059560;28;20028;-45
2022/05/15 03:24:15;;;;;;;10.13;4.03;;;8.60;99.90;;;;;;5060241;28;20025;-47
2022/05/15 03:26:43;;;;;;;13.07;4.10;;;8.50;99.90;;;;;;5050915;28;20024;-48
2022/05/15 03:29:11;;;;;;;10.35;3.80;;;8.50;99.90;;;;;;5056035;28;20060;-45
2022/05/15 03:31:39;;;;;;;8.43;3.65;;;8.60;99.90;;;;;;5069870;28;20452;-45
2022/05/15 03:34:06;;;;;;;9.88;4.00;;;8.60;99.90;;;;;;5070504;28;20427;-45
2022/05/15 03:36:32;;;;;;;15.73;4.32;;;8.60;99.90;;;;;;5070708;28;20024;-45
2022/05/15 03:38:57;;;;;;;8.93;4.28;;;8.50;99.90;;;;;;5068936;28;20490;-46
2022/05/15 03:41:23;;;;;;;9.00;3.67;;;8.50;99.90;;;;;;5053935;28;20048;-46
2022/05/15 03:43:48;;;;;;;7.43;3.65;;;8.50;99.90;;;;;;5062349;28;20059;-46
2022/05/15 03:46:14;;;;;;;8.68;3.65;;;8.50;99.90;;;;;;5064016;28;20474;-46
2022/05/15 03:48:39;;;;;;;10.88;4.07;;;8.50;99.90;;;;;;5082009;28;20028;-45
2022/05/15 03:51:05;;;;;;;13.35;3.97;;;8.50;99.90;;;;;;5090811;28;20106;-45
2022/05/15 03:53:32;;;;;;;12.63;4.10;;;8.50;99.90;;;;;;5071280;28;20094;-47
2022/05/15 03:55:58;;;;;;;7.28;3.53;;;8.60;99.90;;;;;;5069280;28;20028;-45
2022/05/15 03:58:25;;;;;;;16.60;4.57;;;8.60;99.90;;;;;;5070295;28;20112;-47
2022/05/15 04:00:51;;;;;;;8.00;3.67;;;8.60;99.90;;;;;;5070382;28;20029;-47
2022/05/15 04:03:17;;;;;;;8.85;4.00;;;8.60;99.90;;;;;;5069632;28;20021;-45
2022/05/15 04:05:42;;;;;;;8.00;4.28;;;8.60;99.90;;;;;;5070537;28;20021;-47
2022/05/15 04:08:08;;;;;;;15.40;4.20;;;8.60;99.90;;;;;;5070432;28;20393;-45
2022/05/15 04:10:34;;;;;;;12.48;3.75;;;8.60;99.90;;;;;;5070500;28;20040;-44
2022/05/15 04:13:00;;;;;;;6.95;3.83;;;8.70;99.90;;;;;;5068217;28;20024;-45
2022/05/15 04:15:25;;;;;;;15.80;4.60;;;8.70;99.90;;;;;;5069659;28;20051;-45
2022/05/15 04:17:51;;;;;;;11.30;4.90;;;8.70;99.90;;;;;;5073372;28;20040;-44
2022/05/15 04:20:20;;;;;;;11.00;4.50;;;8.70;99.90;;;;;;5092205;28;20035;-45
2022/05/15 04:22:45;;;;;;;12.77;4.70;;;8.70;99.90;;;;;;5080034;28;20359;-47
2022/05/15 04:25:11;;;;;;;9.98;4.03;;;8.80;99.90;;;;;;5073021;28;20027;-44
2022/05/15 04:27:37;;;;;;;7.28;3.65;;;8.80;99.90;;;;;;5055695;28;20029;-45
2022/05/15 04:30:03;;;;;;;13.50;4.60;;;8.80;99.90;;;;;;5052592;28;20095;-44
2022/05/15 04:32:29;;;;;;;12.73;4.65;;;8.90;99.90;;;;;;5053207;28;20029;-44
2022/05/15 04:34:54;;;;;;;13.32;4.38;;;8.90;99.90;;;;;;5053790;28;20025;-45
2022/05/15 04:37:20;;;;;;;13.82;4.28;;;8.90;99.90;;;;;;5054119;28;20079;-46
2022/05/15 04:39:45;;;;;;;10.35;4.88;;;8.90;99.90;;;;;;5053887;28;20040;-45
2022/05/15 04:42:11;;;;;;;11.15;4.40;;;8.90;99.90;;;;;;5059261;28;20024;-44
2022/05/15 04:44:36;;;;;;;10.75;3.58;;;9.00;99.90;;;;;;5053852;28;20028;-44
2022/05/15 04:47:02;;;;;;;7.40;3.22;;;9.00;99.90;;;;;;5074835;28;20024;-44
2022/05/15 04:49:28;;;;;;;10.63;3.13;;;9.10;99.90;;;;;;5085405;28;20503;-44
2022/05/15 04:51:53;;;;;;;8.75;3.78;;;9.20;99.90;;;;;;5092049;28;20028;-44
2022/05/15 04:54:19;;;;;;;11.20;4.32;;;9.30;99.90;;;;;;5093899;28;20078;-46
2022/05/15 04:56:44;;;;;;;8.05;3.42;;;9.30;99.90;;;;;;5093784;28;20120;-46
2022/05/15 04:59:10;;;;;;;7.47;3.53;;;9.40;99.90;;;;;;5093824;28;20039;-46
2022/05/15 05:01:35;;;;;;;7.53;3.65;;;9.50;99.90;;;;;;5093272;28;20095;-47
2022/05/15 05:04:01;;;;;;;7.68;3.78;;;9.50;99.90;;;;;;5093629;28;20115;-43
2022/05/15 05:06:28;;;;;;;7.75;3.10;;;9.60;99.90;;;;;;5093888;28;20469;-44
2022/05/15 05:08:54;;;;;;;7.80;3.58;;;9.70;99.90;;;;;;5085213;28;20025;-46
2022/05/15 05:11:20;;;;;;;8.40;3.60;;;9.70;99.90;;;;;;5071177;28;20085;-46
2022/05/15 05:13:46;;;;;;;7.10;3.20;;;9.70;99.90;;;;;;5055718;28;20060;-47
2022/05/15 05:16:12;;;;;;;11.98;3.70;;;9.90;99.90;;;;;;5053704;28;20053;-45
2022/05/15 05:18:38;;;;;;;9.68;4.63;;;9.90;99.90;;;;;;5077194;28;20020;-45
2022/05/15 05:21:04;;;;;;;11.05;4.97;;;10.00;99.90;;;;;;5060017;28;20094;-46
2022/05/15 05:23:30;;;;;;;11.00;4.80;;;10.10;99.90;;;;;;5061170;28;20471;-47
2022/05/15 05:25:55;;;;;;;9.38;4.40;;;10.20;99.90;;;;;;5059850;28;20044;-43
2022/05/15 05:28:21;;;;;;;10.65;4.50;;;10.20;99.90;;;;;;5060537;28;20120;-44
2022/05/15 05:30:47;;;;;;;16.23;5.47;;;10.30;99.90;;;;;;5061060;28;20017;-43
2022/05/15 05:33:13;;;;;;;13.80;5.30;;;10.40;99.90;;;;;;5063449;28;20017;-45
2022/05/15 05:35:38;;;;;;;12.13;4.72;;;10.40;99.90;;;;;;5063704;28;20428;-46
2022/05/15 05:38:04;;;;;;;13.82;5.22;;;10.50;99.90;;;;;;5061653;28;20024;-47
2022/05/15 05:40:30;;;;;;;15.10;5.00;;;10.60;99.90;;;;;;5063060;28;20066;-44
2022/05/15 05:42:56;;;;;;;15.45;4.88;;;10.70;99.90;;;;;;5060798;28;20025;-45
2022/05/15 05:45:22;;;;;;;9.80;4.35;;;10.70;99.90;;;;;;5063945;28;20036;-44
2022/05/15 05:47:49;;;;;;;11.55;4.43;;;10.80;99.90;;;;;;5063869;28;20033;-45
2022/05/15 05:50:17;;;;;;;16.10;4.95;;;10.90;99.90;;;;;;5064852;28;20103;-45
2022/05/15 05:52:42;;;;;;;12.32;4.53;;;11.00;99.90;;;;;;5060159;28;20481;-44
2022/05/15 05:55:11;;;;;;;12.88;4.82;;;11.10;99.90;;;;;;5060159;28;20154;-47
2022/05/15 05:57:38;;;;;;;10.68;4.53;;;11.20;99.90;;;;;;5060805;28;20023;-45
2022/05/15 06:00:06;;;;;;;15.82;4.50;;;11.20;99.90;;;;;;5060460;28;20123;-45
2022/05/15 06:02:31;;;;;;;12.10;4.55;;;11.30;99.90;;;;;;5060609;28;20501;-45
2022/05/15 06:04:57;;;;;;;9.88;4.30;;;11.40;99.90;;;;;;5062467;28;20029;-46
2022/05/15 06:07:25;;;;;;;9.55;4.32;;;11.50;99.90;;;;;;5058285;28;20028;-45
2022/05/15 06:09:52;;;;;;;14.65;4.50;;;11.60;99.90;;;;;;5062005;28;20112;-46
2022/05/15 06:12:20;;;;;;;10.82;4.50;;;11.70;99.90;;;;;;5061845;28;20024;-43
2022/05/15 06:14:46;;;;;;;16.90;4.60;;;11.80;99.90;;;;;;5061033;28;20411;-45
2022/05/15 06:17:12;;;;;;;20.63;4.78;;;11.80;99.90;;;;;;5062779;28;20031;-46
2022/05/15 06:19:38;;;;;;;12.85;4.00;;;11.90;99.90;;;;;;5063818;28;20113;-46
2022/05/15 06:22:04;;;;;;;18.42;4.30;;;12.00;99.90;;;;;;5060836;28;20048;-44
2022/05/15 06:24:29;;;;;;;6.63;3.22;;;12.00;99.90;;;;;;5060892;28;20024;-45
2022/05/15 06:26:59;;;;;;;14.05;4.50;;;12.10;99.90;;;;;;5060623;28;20672;-46
2022/05/15 06:29:26;;;;;;;11.55;3.88;;;12.20;99.90;;;;;;5060570;28;20608;-45
2022/05/15 06:31:52;;;;;;;9.23;3.08;;;12.30;99.90;;;;;;5059674;28;20032;-45
2022/05/15 06:34:17;;;;;;;12.27;3.58;;;12.40;99.90;;;;;;5062820;28;20025;-47
2022/05/15 06:36:43;;;;;;;9.85;3.22;;;12.40;99.90;;;;;;5060092;28;20481;-45
2022/05/15 06:39:09;;;;;;;12.10;3.70;;;12.50;99.90;;;;;;5063022;28;20075;-47
2022/05/15 06:41:35;;;;;;;12.70;3.70;;;12.60;99.90;;;;;;5061591;28;20029;-45
2022/05/15 06:44:01;;;;;;;11.70;3.97;;;12.70;99.90;;;;;;5060563;28;20485;-46
2022/05/15 06:46:27;;;;;;;7.40;3.20;;;12.80;99.90;;;;;;5064586;28;20055;-48
2022/05/15 06:48:53;;;;;;;11.98;3.70;;;12.90;99.90;;;;;;5062313;28;20025;-45
2022/05/15 06:51:18;;;;;;;10.02;4.13;;;13.00;99.90;;;;;;5059935;28;20024;-43
2022/05/15 06:53:48;;;;;;;10.07;3.65;;;13.10;99.90;;;;;;5062311;28;20024;-44
2022/05/15 06:58:59;;;;;;;9.27;3.28;;;13.30;99.90;;;;;;5052020;28;20112;-45
2022/05/15 07:01:25;;;;;;;9.38;3.35;;;13.40;99.90;;;;;;5051173;28;20040;-44
2022/05/15 07:03:51;;;;;;;9.57;3.90;;;13.40;99.90;;;;;;5050589;28;20025;-45
2022/05/15 07:06:17;;;;;;;11.00;3.70;;;13.50;99.90;;;;;;5051060;28;20060;-45
2022/05/15 07:08:43;;;;;;;16.00;3.92;;;13.60;99.90;;;;;;5055369;28;20040;-45
2022/05/15 07:11:10;;;;;;;9.07;3.13;;;13.70;99.90;;;;;;5066175;28;20504;-45
2022/05/15 07:13:36;;;;;;;8.60;3.50;;;13.90;99.90;;;;;;5059915;28;20074;-45
2022/05/15 07:16:02;;;;;;;13.73;3.60;;;14.00;99.90;;;;;;5065040;28;20108;-45
2022/05/15 07:18:28;;;;;;;9.43;3.50;;;14.10;99.90;;;;;;5080952;28;20028;-44
2022/05/15 07:20:54;;;;;;;8.90;3.75;;;14.20;99.90;;;;;;5091038;28;20073;-44
2022/05/15 07:23:21;;;;;;;14.68;3.92;;;14.40;99.90;;;;;;5060314;28;20021;-44
2022/05/15 07:25:48;;;;;;;10.15;3.17;;;14.60;99.90;;;;;;5051155;28;20068;-43
2022/05/15 07:28:14;;;;;;;12.93;3.50;;;14.70;99.90;;;;;;5052267;28;20028;-45
2022/05/15 07:30:40;;;;;;;12.25;3.20;;;14.80;99.90;;;;;;5071045;28;20111;-45
2022/05/15 07:33:06;;;;;;;12.32;3.75;;;15.00;99.90;;;;;;5069895;28;20025;-44
2022/05/15 07:35:32;;;;;;;8.02;2.97;;;15.20;99.90;;;;;;5060791;28;20016;-44
2022/05/15 07:37:58;;;;;;;13.18;2.92;;;15.30;99.90;;;;;;5055494;28;20025;-44
2022/05/15 07:40:24;;;;;;;13.43;3.83;;;15.50;99.90;;;;;;5051050;28;20158;-44
2022/05/15 07:42:49;;;;;;;13.18;3.20;;;15.70;99.90;;;;;;5060097;28;20024;-45
2022/05/15 07:45:16;;;;;;;8.40;2.92;;;15.90;99.90;;;;;;5058146;28;20023;-46
2022/05/15 07:47:42;;;;;;;8.65;3.08;;;16.00;99.90;;;;;;5066561;28;20020;-43
2022/05/15 07:50:09;;;;;;;11.80;3.13;;;16.20;99.50;;;;;;5057408;28;20028;-45
2022/05/15 07:52:35;;;;;;;8.73;3.00;;;16.40;98.20;;;;;;5050238;28;20021;-44
2022/05/15 07:55:02;;;;;;;7.57;3.22;;;16.60;96.70;;;;;;5050796;28;20475;-45
2022/05/15 07:57:28;;;;;;;13.75;3.20;;;16.80;97.20;;;;;;5050600;28;20490;-46
2022/05/15 07:59:53;;;;;;;8.70;2.70;;;16.80;96.80;;;;;;5050714;28;20056;-44
2022/05/15 08:02:19;;;;;;;9.88;3.50;;;17.10;96.00;;;;;;5050008;28;20527;-45
2022/05/15 08:10:14;;;;;;;8.85;2.90;;;17.60;94.50;;;;;;5050554;28;20562;-44
2022/05/15 08:12:39;;;;;;;5.43;2.53;;;17.90;94.30;;;;;;5053613;28;20033;-44
2022/05/15 08:15:07;;;;;;;8.52;2.72;;;18.20;92.70;;;;;;5058497;28;20036;-45
2022/05/15 08:17:33;;;;;;;18.05;8.55;;;18.30;92.20;;;;;;5073993;28;20017;-44
2022/05/15 08:25:27;;;;;;;6.55;3.05;;;19.80;88.00;;;;;;5064653;28;20027;-44
2022/05/15 08:27:52;;;;;;;8.38;2.75;;;21.10;85.80;;;;;;5069772;28;20120;-44
2022/05/15 08:30:20;;;;;;;5.40;2.33;;;22.50;79.40;;;;;;5069753;28;20115;-45
2022/05/15 08:32:45;;;;;;;5.30;2.05;;;23.80;71.80;;;;;;5054537;28;20025;-44
2022/05/15 08:35:11;;;;;;;6.35;2.90;;;25.20;64.50;;;;;;5049715;28;20024;-48
2022/05/15 08:37:37;;;;;;;5.55;2.30;;;26.70;61.10;;;;;;5049140;28;20655;-47
2022/05/15 08:40:03;;;;;;;4.90;2.20;;;27.70;55.80;;;;;;5048327;28;20104;-44
2022/05/15 08:42:42;;;;;;;6.78;2.35;;;28.20;52.50;;;;;;5066993;28;20068;-45
2022/05/15 08:45:14;;;;;;;7.82;2.85;;;28.10;50.40;;;;;;5068517;28;20021;-45
2022/05/15 08:47:44;;;;;;;7.57;2.30;;;27.80;53.10;;;;;;5070833;28;20028;-45
2022/05/15 08:50:13;;;;;;;4.93;2.47;;;29.20;51.10;;;;;;5071974;28;20037;-49
2022/05/15 08:53:02;;;;;;;8.98;2.97;;;30.50;48.70;;;;;;5068786;28;20027;-46
2022/05/15 08:55:40;;;;;;;4.50;2.30;;;30.80;46.50;;;;;;5069900;28;20600;-47
2022/05/15 08:58:11;;;;;;;6.78;2.67;;;30.50;47.00;;;;;;5067908;28;20040;-46
2022/05/15 09:00:44;;;;;;;5.57;2.10;;;31.90;44.00;;;;;;5055389;28;20032;-46
2022/05/15 09:03:22;;;;;;;7.90;2.72;;;32.10;43.20;;;;;;5048663;28;20091;-47
2022/05/15 09:05:52;;;;;;;6.32;2.70;;;31.90;42.80;;;;;;5052028;28;20425;-47
2022/05/15 09:08:47;;;;;;;5.35;2.03;;;31.90;43.20;;;;;;5051969;28;20029;-45
2022/05/15 09:11:21;;;;;;;8.10;2.20;;;31.80;43.00;;;;;;5052371;28;20060;-46
2022/05/15 09:13:54;;;;;;;5.65;2.08;;;31.60;43.30;;;;;;5071282;28;20024;-44
2022/05/15 09:16:26;;;;;;;5.97;2.08;;;32.20;42.70;;;;;;5067104;28;20024;-45
2022/05/15 09:18:59;;;;;;;6.00;2.15;;;32.30;41.90;;;;;;5083288;28;20032;-46
2022/05/15 09:21:24;;;;;;;5.68;2.10;;;32.40;41.50;;;;;;5093352;28;20420;-47
2022/05/15 09:23:53;;;;;;;5.05;2.10;;;32.70;41.40;;;;;;5092789;28;20032;-47
2022/05/15 09:26:26;;;;;;;6.20;3.20;;;33.00;41.30;;;;;;5093302;28;20490;-45
2022/05/15 09:29:01;;;;;;;5.28;1.92;;;33.80;40.70;;;;;;5093109;28;20115;-45
2022/05/15 09:31:38;;;;;;;4.00;1.70;;;33.70;40.10;;;;;;5061319;28;20446;-46
2022/05/15 09:34:08;;;;;;;4.22;1.95;;;34.20;38.80;;;;;;5051126;28;20120;-48
2022/05/15 09:36:34;;;;;;;6.00;2.28;;;34.10;39.40;;;;;;5052861;28;20051;-47
2022/05/15 09:39:37;;;;;;;5.15;1.92;;;32.90;39.10;;;;;;5052889;28;20502;-46
2022/05/15 09:45:22;;;;;;;6.10;2.15;;;34.00;38.10;;;;;;5052595;28;20090;-47
2022/05/15 09:47:50;;;;;;;4.28;1.70;;;34.10;37.80;;;;;;5074408;28;20508;-46
2022/05/15 09:50:47;;;;;;;5.53;1.63;;;34.00;37.90;;;;;;5090329;28;20032;-46
2022/05/15 09:53:31;;;;;;;5.50;2.38;;;34.50;38.80;;;;;;5090663;28;20055;-45
2022/05/15 09:56:07;;;;;;;7.68;2.10;;;34.80;37.80;;;;;;5091401;28;20016;-46
2022/05/15 09:58:51;;;;;;;5.20;1.95;;;34.60;37.80;;;;;;5084021;28;20032;-44
2022/05/15 10:01:33;;;;;;;4.72;2.10;;;34.50;38.50;;;;;;5071169;28;20478;-45
2022/05/15 10:04:00;;;;;;;4.47;1.60;;;34.80;37.80;;;;;;5071570;28;20030;-47
2022/05/15 10:06:32;;;;;;;6.28;2.13;;;34.70;37.80;;;;;;5072388;28;20128;-45
2022/05/15 10:09:13;;;;;;;4.93;2.25;;;34.00;36.90;;;;;;5072190;28;20028;-47
2022/05/15 10:11:44;;;;;;;5.38;2.15;;;34.10;38.20;;;;;;5054313;28;20029;-52
2022/05/15 10:14:40;;;;;;;5.22;2.00;;;34.10;37.50;;;;;;5057482;28;20024;-45
2022/05/15 10:17:08;;;;;;;8.05;2.33;;;34.30;38.10;;;;;;5067029;28;20357;-46
2022/05/15 10:19:43;;;;;;;5.43;2.13;;;33.50;37.50;;;;;;5083725;28;20024;-46
2022/05/15 10:22:25;;;;;;;4.68;2.03;;;34.70;37.40;;;;;;5091672;28;20043;-48
2022/05/15 10:24:51;;;;;;;5.05;1.65;;;34.10;37.20;;;;;;5092410;28;20017;-47
2022/05/15 10:27:28;;;;;;;3.20;1.83;;;33.50;36.60;;;;;;5092326;28;20428;-47
2022/05/15 10:30:12;;;;;;;3.90;1.67;;;34.50;37.10;;;;;;5075792;28;20024;-46
2022/05/15 10:32:45;;;;;;;5.18;1.75;;;35.00;36.20;;;;;;5062112;28;20028;-47
2022/05/15 10:35:15;;;;;;;3.47;1.60;;;35.40;35.40;;;;;;5051714;28;20044;-46
2022/05/15 10:38:19;;;;;;;2.90;1.80;;;35.50;36.00;;;;;;5051891;28;20107;-46
2022/05/15 10:40:50;;;;;;;4.72;2.00;;;35.50;35.00;;;;;;5060909;28;20374;-47
2022/05/15 10:43:38;;;;;;;3.65;1.80;;;35.50;36.60;;;;;;5069438;28;20939;-48
2022/05/15 10:46:25;;;;;;;3.70;1.77;;;35.20;36.50;;;;;;5065676;28;20025;-46
2022/05/15 10:49:10;;;;;;;3.00;1.70;;;35.60;36.10;;;;;;5083120;28;20115;-48
2022/05/15 10:51:49;;;;;;;5.80;2.00;;;35.50;36.50;;;;;;5091470;28;20039;-47
2022/05/15 10:57:36;;;;;;;4.03;2.25;;;35.60;37.30;;;;;;5091017;28;20043;-47
2022/05/15 11:00:25;;;;;;;4.60;2.08;;;35.50;36.60;;;;;;5091629;28;20095;-49
2022/05/15 11:03:18;;;;;;;6.88;2.05;;;35.40;36.30;;;;;;5089760;28;20107;-46
2022/05/15 11:06:30;;;;;;;4.55;1.95;;;34.50;38.00;;;;;;5091633;28;20016;-46
2022/05/15 11:09:25;;;;;;;5.18;2.08;;;34.80;36.80;;;;;;5091260;28;20028;-47
2022/05/15 11:11:59;;;;;;;4.43;1.80;;;35.00;36.90;;;;;;5070975;28;20093;-48
2022/05/15 11:14:36;;;;;;;3.70;1.83;;;34.20;38.30;;;;;;5069743;28;20111;-47
2022/05/15 11:17:21;;;;;;;3.45;2.10;;;34.20;37.80;;;;;;5070199;28;20103;-48
2022/05/15 11:19:47;;;;;;;5.40;2.00;;;34.50;36.70;;;;;;5071776;28;20029;-46
2022/05/15 11:22:40;;;;;;;5.53;1.98;;;34.50;37.00;;;;;;5050479;28;20021;-46
2022/05/15 11:25:16;;;;;;;5.38;1.88;;;34.50;37.30;;;;;;5051021;28;20037;-46
2022/05/15 11:28:08;;;;;;;3.13;1.52;;;34.70;37.30;;;;;;5050553;28;20386;-50
2022/05/15 11:30:39;;;;;;;4.53;2.15;;;35.10;36.40;;;;;;5050846;28;20110;-49
2022/05/15 11:33:10;;;;;;;3.55;1.90;;;36.00;35.60;;;;;;5050072;28;20018;-46
2022/05/15 11:35:38;;;;;;;5.60;2.28;;;35.40;35.80;;;;;;5050758;28;20054;-48
2022/05/15 11:38:25;;;;;;;4.45;1.80;;;34.70;36.80;;;;;;5050476;28;20025;-47
2022/05/15 11:40:51;;;;;;;3.40;1.77;;;34.60;36.90;;;;;;5050833;28;20419;-47
2022/05/15 11:43:26;;;;;;;4.43;2.10;;;34.20;36.70;;;;;;5057920;28;20347;-46
2022/05/15 11:46:11;;;;;;;3.58;1.88;;;34.90;36.90;;;;;;5066174;28;20078;-40
2022/05/15 11:48:39;;;;;;;3.60;1.40;;;34.50;37.00;;;;;;5070497;28;20025;-40
2022/05/15 11:51:13;;;;;;;5.28;1.77;;;34.40;36.70;;;;;;5070563;28;20442;-40
2022/05/15 11:54:02;;;;;;;3.85;1.88;;;34.20;37.50;;;;;;5068737;28;20078;-40
2022/05/15 11:56:40;;;;;;;5.55;1.98;;;33.70;35.50;;;;;;5082248;28;20410;-39
2022/05/15 11:59:22;;;;;;;4.43;2.08;;;32.90;36.30;;;;;;5090815;28;20060;-39
2022/05/15 12:01:54;;;;;;;5.72;2.30;;;31.50;36.70;;;;;;5090038;28;20067;-39
2022/05/15 12:04:25;;;;;;;4.28;1.65;;;31.10;36.50;;;;;;5071236;28;20474;-39
2022/05/15 12:06:56;;;;;;;4.38;1.88;;;30.70;37.40;;;;;;5084663;28;20035;-39
2022/05/15 12:09:26;;;;;;;5.22;1.52;;;30.60;37.70;;;;;;5090472;28;20462;-39
2022/05/15 12:11:58;;;;;;;;;;;30.50;37.30;;;;;;5090439;28;20020;-39
2022/05/15 12:14:27;;;;;;;6.75;2.30;;;29.70;40.80;;;;;;5090557;28;19939;-39
2022/05/15 12:17:00;;;;;;;5.00;1.73;;;29.10;39.40;;;;;;5072640;28;20025;-39
2022/05/15 12:19:35;;;;;;;3.40;1.75;;;28.60;40.80;;;;;;5089077;28;20020;-39
2022/05/15 12:22:04;;;;;;;4.50;2.33;;;29.20;41.10;;;;;;5068797;28;20029;-39
2022/05/15 12:24:33;;;;;;;9.52;2.17;;;29.30;41.90;;;;;;5050341;28;20057;-39
2022/05/15 12:27:16;;;;;;;5.00;2.28;;;29.20;42.60;;;;;;5050228;28;20535;-39
2022/05/15 12:30:14;;;;;;;7.40;2.53;;;29.00;41.10;;;;;;5058490;28;20429;-39
2022/05/15 12:32:50;;;;;;;5.53;2.08;;;28.90;42.90;;;;;;5068500;28;20024;-39
2022/05/15 12:35:20;;;;;;;6.45;2.00;;;28.90;41.90;;;;;;5069814;28;20021;-39
2022/05/15 12:37:56;;;;;;;3.22;1.88;;;28.50;42.00;;;;;;5069927;28;20035;-39
2022/05/15 12:40:31;;;;;;;7.43;1.67;;;28.50;43.10;;;;;;5053475;28;20425;-39
2022/05/15 12:42:57;;;;;;;3.38;1.73;;;28.10;42.00;;;;;;5056642;28;20103;-39
2022/05/15 12:45:23;;;;;;;4.32;2.10;;;27.70;42.60;;;;;;5073841;28;20451;-39
2022/05/15 12:48:08;;;;;;;4.57;1.90;;;27.90;43.80;;;;;;5073755;28;20021;-39
2022/05/15 12:50:47;;;;;;;3.10;1.70;;;28.30;43.40;;;;;;5073504;28;20474;-39
2022/05/15 12:53:28;;;;;;;4.28;1.70;;;28.30;43.90;;;;;;5055847;28;20035;-39
2022/05/15 12:56:07;;;;;;;8.77;2.05;;;28.30;43.80;;;;;;5053692;28;20463;-39
2022/05/15 12:58:34;;;;;;;5.43;2.17;;;28.30;41.50;;;;;;5053662;28;20032;-39
2022/05/15 13:01:00;;;;;;;4.57;1.63;;;28.20;41.40;;;;;;5075747;28;20039;-39
2022/05/15 13:03:27;;;;;;;5.75;1.98;;;28.50;40.60;;;;;;5073101;28;20029;-39
2022/05/15 13:05:55;;;;;;;4.28;2.10;;;27.90;41.80;;;;;;5073573;28;20025;-39
2022/05/15 13:08:22;;;;;;;4.85;1.88;;;28.10;41.80;;;;;;5073360;28;20469;-39
2022/05/15 13:10:58;;;;;;;3.42;1.80;;;27.90;42.50;;;;;;5073298;28;20035;-39
2022/05/15 13:13:34;;;;;;;3.97;1.70;;;27.50;43.00;;;;;;5072733;28;20025;-39
2022/05/15 13:16:00;;;;;;;2.50;1.42;;;27.00;41.20;;;;;;5073289;28;20020;-39
2022/05/15 13:18:30;;;;;;;6.13;2.03;;;27.20;42.70;;;;;;5072975;28;20032;-39
2022/05/15 13:21:01;;;;;;;3.97;1.60;;;27.40;41.60;;;;;;5056408;28;20029;-39